createdAt,value
2016-07-09T00:00:27.943Z,0
2016-07-09T00:01:27.920Z,0
2016-07-09T00:02:27.913Z,0
2016-07-09T00:03:27.880Z,0
2016-07-09T00:04:27.869Z,0
2016-07-09T00:05:27.853Z,0
2016-07-09T00:06:27.828Z,0
2016-07-09T00:07:27.810Z,0
2016-07-09T00:08:27.796Z,0
2016-07-09T00:09:27.774Z,0
2016-07-09T00:10:27.751Z,0
2016-07-09T00:11:27.740Z,0
2016-07-09T00:12:27.722Z,0
2016-07-09T00:13:27.696Z,0
2016-07-09T00:14:27.683Z,0
2016-07-09T00:15:27.676Z,0
2016-07-09T00:16:27.645Z,0
2016-07-09T00:17:27.635Z,0
2016-07-09T00:18:27.610Z,0
2016-07-09T00:19:27.594Z,0
2016-07-09T00:20:27.573Z,0
2016-07-09T00:21:27.548Z,0
2016-07-09T00:22:27.533Z,0
2016-07-09T00:23:27.528Z,0
2016-07-09T00:24:27.496Z,0
2016-07-09T00:25:27.479Z,0
2016-07-09T00:26:27.464Z,0
2016-07-09T00:27:27.445Z,0
2016-07-09T00:28:27.426Z,0
2016-07-09T00:29:27.457Z,0
2016-07-09T00:30:27.384Z,0
2016-07-09T00:31:27.366Z,0
2016-07-09T00:32:27.354Z,0
2016-07-09T00:33:27.326Z,0
2016-07-09T00:34:27.313Z,0
2016-07-09T00:35:27.290Z,0
2016-07-09T00:36:27.270Z,0
2016-07-09T00:37:27.273Z,0
2016-07-09T00:38:27.235Z,0
2016-07-09T00:39:27.214Z,0
2016-07-09T00:40:27.213Z,0
2016-07-09T00:41:27.177Z,0
2016-07-09T00:42:27.760Z,0
2016-07-09T00:43:27.145Z,0
2016-07-09T00:44:27.124Z,0
2016-07-09T00:45:27.103Z,0
2016-07-09T00:46:27.089Z,0
2016-07-09T00:47:27.069Z,0
2016-07-09T00:48:27.046Z,0
2016-07-09T00:49:27.628Z,0
2016-07-09T00:50:27.040Z,0
2016-07-09T00:51:26.998Z,0
2016-07-09T00:52:26.981Z,0
2016-07-09T00:53:26.947Z,0
2016-07-09T00:54:26.932Z,0
2016-07-09T00:55:26.915Z,0
2016-07-09T00:56:26.897Z,0
2016-07-09T00:57:26.876Z,0
2016-07-09T00:58:26.856Z,0
2016-07-09T00:59:26.833Z,0
2016-07-09T01:00:26.819Z,0
2016-07-09T01:01:26.795Z,0
2016-07-09T01:02:26.775Z,0
2016-07-09T01:03:26.760Z,0
2016-07-09T01:04:26.742Z,0
2016-07-09T01:05:26.726Z,0
2016-07-09T01:06:26.701Z,0
2016-07-09T01:07:26.680Z,0
2016-07-09T01:08:26.661Z,0
2016-07-09T01:09:26.646Z,0
2016-07-09T01:10:26.621Z,0
2016-07-09T01:11:26.600Z,0
2016-07-09T01:12:26.587Z,0
2016-07-09T01:13:26.565Z,0
2016-07-09T01:14:26.544Z,0
2016-07-09T01:15:26.531Z,0
2016-07-09T01:16:26.514Z,0
2016-07-09T01:17:26.489Z,0
2016-07-09T01:18:26.468Z,0
2016-07-09T01:19:26.450Z,0
2016-07-09T01:20:26.425Z,0
2016-07-09T01:21:26.410Z,0
2016-07-09T01:22:26.390Z,0
2016-07-09T01:23:26.366Z,0
2016-07-09T01:24:26.351Z,0
2016-07-09T01:25:26.333Z,0
2016-07-09T01:26:26.308Z,0
2016-07-09T01:27:26.307Z,0
2016-07-09T01:28:26.276Z,0
2016-07-09T01:29:26.253Z,0
2016-07-09T01:30:26.236Z,0
2016-07-09T01:31:26.222Z,0
2016-07-09T01:32:26.192Z,0
2016-07-09T01:33:26.172Z,0
2016-07-09T01:34:26.162Z,0
2016-07-09T01:35:26.139Z,0
2016-07-09T01:36:26.114Z,0
2016-07-09T01:37:26.107Z,0
2016-07-09T01:38:26.079Z,0
2016-07-09T01:39:26.071Z,0
2016-07-09T01:40:26.042Z,0
2016-07-09T01:41:26.017Z,0
2016-07-09T01:42:26.001Z,0
2016-07-09T01:43:25.983Z,0
2016-07-09T01:44:25.965Z,0
2016-07-09T01:45:25.941Z,0
2016-07-09T01:46:25.919Z,0
2016-07-09T01:47:25.899Z,0
2016-07-09T01:48:25.881Z,0
2016-07-09T01:49:25.863Z,0
2016-07-09T01:50:25.844Z,0
2016-07-09T01:51:25.823Z,0
2016-07-09T01:52:25.799Z,0
2016-07-09T01:53:25.784Z,0
2016-07-09T01:54:25.766Z,0
2016-07-09T01:55:25.743Z,0
2016-07-09T01:56:25.727Z,0
2016-07-09T01:57:25.704Z,0
2016-07-09T01:58:25.684Z,0
2016-07-09T01:59:25.664Z,0
2016-07-09T02:00:25.652Z,0
2016-07-09T02:01:25.628Z,0
2016-07-09T02:02:25.608Z,0
2016-07-09T02:03:25.588Z,0
2016-07-09T02:04:25.569Z,0
2016-07-09T02:05:25.548Z,0
2016-07-09T02:06:25.529Z,0
2016-07-09T02:07:25.511Z,0
2016-07-09T02:08:25.485Z,0
2016-07-09T02:09:25.483Z,0
2016-07-09T02:10:25.452Z,0
2016-07-09T02:11:25.434Z,0
2016-07-09T02:12:25.415Z,0
2016-07-09T02:13:25.403Z,0
2016-07-09T02:14:25.373Z,0
2016-07-09T02:15:25.359Z,0
2016-07-09T02:16:25.339Z,0
2016-07-09T02:17:25.312Z,0
2016-07-09T02:18:25.298Z,0
2016-07-09T02:19:25.277Z,0
2016-07-09T02:20:25.257Z,0
2016-07-09T02:21:25.242Z,0
2016-07-09T02:22:25.225Z,0
2016-07-09T02:23:25.200Z,0
2016-07-09T02:24:25.180Z,0
2016-07-09T02:25:25.171Z,0
2016-07-09T02:26:25.144Z,0
2016-07-09T02:27:25.123Z,0
2016-07-09T02:28:25.103Z,0
2016-07-09T02:29:25.081Z,0
2016-07-09T02:30:25.062Z,0
2016-07-09T02:31:25.061Z,0
2016-07-09T02:32:25.034Z,0
2016-07-09T02:33:25.005Z,0
2016-07-09T02:34:24.998Z,0
2016-07-09T02:35:25.579Z,0
2016-07-09T02:36:24.952Z,0
2016-07-09T02:37:24.933Z,0
2016-07-09T02:38:24.913Z,0
2016-07-09T02:39:24.896Z,0
2016-07-09T02:40:24.873Z,0
2016-07-09T02:41:24.850Z,0
2016-07-09T02:42:24.829Z,0
2016-07-09T02:43:24.815Z,0
2016-07-09T02:44:24.799Z,0
2016-07-09T02:45:24.773Z,0
2016-07-09T02:46:24.758Z,0
2016-07-09T02:47:24.737Z,0
2016-07-09T02:48:24.713Z,0
2016-07-09T02:49:24.704Z,0
2016-07-09T02:50:24.691Z,0
2016-07-09T02:51:24.667Z,0
2016-07-09T02:52:24.638Z,0
2016-07-09T02:53:24.616Z,0
2016-07-09T02:54:24.603Z,0
2016-07-09T02:55:24.582Z,0
2016-07-09T02:56:24.561Z,0
2016-07-09T02:57:24.544Z,0
2016-07-09T02:58:24.524Z,0
2016-07-09T02:59:24.502Z,0
2016-07-09T03:00:24.486Z,0
2016-07-09T03:01:24.464Z,0
2016-07-09T03:02:24.443Z,0
2016-07-09T03:03:24.431Z,0
2016-07-09T03:04:24.414Z,0
2016-07-09T03:05:24.390Z,0
2016-07-09T03:06:24.370Z,0
2016-07-09T03:07:24.354Z,0
2016-07-09T03:08:24.324Z,0
2016-07-09T03:09:24.318Z,0
2016-07-09T03:10:24.289Z,0
2016-07-09T03:11:24.272Z,0
2016-07-09T03:12:24.247Z,0
2016-07-09T03:13:24.238Z,5
2016-07-09T03:14:24.213Z,5
2016-07-09T03:15:24.194Z,5
2016-07-09T03:16:24.175Z,5
2016-07-09T03:17:24.159Z,5
2016-07-09T03:18:24.138Z,5
2016-07-09T03:19:24.111Z,5
2016-07-09T03:20:24.098Z,5
2016-07-09T03:21:24.083Z,10
2016-07-09T03:22:24.058Z,10
2016-07-09T03:23:24.036Z,10
2016-07-09T03:24:24.024Z,10
2016-07-09T03:25:24.001Z,10
2016-07-09T03:26:23.978Z,10
2016-07-09T03:27:23.961Z,10
2016-07-09T03:28:23.949Z,15
2016-07-09T03:29:23.918Z,15
2016-07-09T03:30:23.905Z,15
2016-07-09T03:31:23.884Z,15
2016-07-09T03:32:23.863Z,20
2016-07-09T03:33:23.860Z,25
2016-07-09T03:34:23.828Z,25
2016-07-09T03:35:23.805Z,25
2016-07-09T03:36:23.789Z,25
2016-07-09T03:37:23.771Z,30
2016-07-09T03:38:23.759Z,30
2016-07-09T03:39:23.731Z,30
2016-07-09T03:40:23.715Z,30
2016-07-09T03:41:23.693Z,30
2016-07-09T03:42:24.273Z,30
2016-07-09T03:43:23.658Z,30
2016-07-09T03:44:23.641Z,25
2016-07-09T03:45:23.621Z,25
2016-07-09T03:46:23.594Z,30
2016-07-09T03:47:23.581Z,35
2016-07-09T03:48:23.562Z,40
2016-07-09T03:49:23.536Z,50
2016-07-09T03:50:23.522Z,50
2016-07-09T03:51:23.514Z,50
2016-07-09T03:52:23.479Z,55
2016-07-09T03:53:23.463Z,65
2016-07-09T03:54:23.447Z,65
2016-07-09T03:55:23.423Z,70
2016-07-09T03:56:23.409Z,70
2016-07-09T03:57:23.390Z,70
2016-07-09T03:58:23.366Z,75
2016-07-09T03:59:23.352Z,75
2016-07-09T04:00:23.326Z,80
2016-07-09T04:01:23.311Z,80
2016-07-09T04:02:23.301Z,80
2016-07-09T04:03:23.282Z,80
2016-07-09T04:04:23.266Z,80
2016-07-09T04:05:23.255Z,85
2016-07-09T04:06:23.219Z,85
2016-07-09T04:07:23.203Z,90
2016-07-09T04:08:23.182Z,90
2016-07-09T04:09:23.161Z,95
2016-07-09T04:10:23.145Z,100
2016-07-09T04:11:23.124Z,105
2016-07-09T04:12:23.105Z,105
2016-07-09T04:13:23.094Z,105
2016-07-09T04:14:23.071Z,105
2016-07-09T04:15:23.046Z,105
2016-07-09T04:16:23.033Z,110
2016-07-09T04:17:23.020Z,110
2016-07-09T04:18:22.990Z,110
2016-07-09T04:19:22.981Z,115
2016-07-09T04:20:22.957Z,110
2016-07-09T04:21:22.963Z,110
2016-07-09T04:22:22.922Z,110
2016-07-09T04:23:22.902Z,115
2016-07-09T04:24:22.883Z,120
2016-07-09T04:25:22.869Z,125
2016-07-09T04:26:22.839Z,135
2016-07-09T04:27:22.826Z,145
2016-07-09T04:28:22.808Z,155
2016-07-09T04:29:22.785Z,165
2016-07-09T04:30:22.774Z,175
2016-07-09T04:31:22.753Z,185
2016-07-09T04:32:22.732Z,185
2016-07-09T04:33:22.714Z,190
2016-07-09T04:34:22.701Z,195
2016-07-09T04:35:22.679Z,200
2016-07-09T04:36:22.658Z,200
2016-07-09T04:37:22.639Z,200
2016-07-09T04:38:22.638Z,200
2016-07-09T04:39:22.607Z,195
2016-07-09T04:40:22.583Z,200
2016-07-09T04:41:22.566Z,205
2016-07-09T04:42:22.555Z,210
2016-07-09T04:43:22.534Z,210
2016-07-09T04:44:22.508Z,205
2016-07-09T04:45:22.505Z,210
2016-07-09T04:46:22.475Z,210
2016-07-09T04:47:22.455Z,215
2016-07-09T04:48:22.442Z,210
2016-07-09T04:49:22.417Z,205
2016-07-09T04:50:22.403Z,200
2016-07-09T04:51:22.386Z,200
2016-07-09T04:52:22.366Z,205
2016-07-09T04:53:22.359Z,210
2016-07-09T04:54:22.332Z,215
2016-07-09T04:55:22.307Z,220
2016-07-09T04:56:22.294Z,220
2016-07-09T04:57:22.272Z,225
2016-07-09T04:58:22.254Z,235
2016-07-09T04:59:22.237Z,235
2016-07-09T05:00:22.218Z,240
2016-07-09T05:01:22.200Z,245
2016-07-09T05:02:22.192Z,255
2016-07-09T05:03:22.167Z,260
2016-07-09T05:04:22.147Z,270
2016-07-09T05:05:22.129Z,275
2016-07-09T05:06:22.111Z,275
2016-07-09T05:07:22.090Z,275
2016-07-09T05:08:22.078Z,285
2016-07-09T05:09:22.064Z,295
2016-07-09T05:10:22.044Z,300
2016-07-09T05:11:22.025Z,300
2016-07-09T05:12:22.005Z,305
2016-07-09T05:13:21.985Z,310
2016-07-09T05:14:21.971Z,310
2016-07-09T05:15:22.552Z,315
2016-07-09T05:16:22.680Z,325
2016-07-09T05:17:21.918Z,335
2016-07-09T05:18:21.900Z,340
2016-07-09T05:19:21.878Z,360
2016-07-09T05:20:21.863Z,370
2016-07-09T05:21:21.842Z,375
2016-07-09T05:22:21.828Z,375
2016-07-09T05:23:21.813Z,370
2016-07-09T05:24:21.796Z,365
2016-07-09T05:25:21.774Z,370
2016-07-09T05:26:21.779Z,375
2016-07-09T05:27:21.749Z,390
2016-07-09T05:28:21.720Z,400
2016-07-09T05:29:21.711Z,405
2016-07-09T05:30:21.697Z,405
2016-07-09T05:31:21.668Z,405
2016-07-09T05:32:21.666Z,410
2016-07-09T05:33:21.637Z,410
2016-07-09T05:34:21.615Z,410
2016-07-09T05:35:21.604Z,415
2016-07-09T05:36:21.586Z,415
2016-07-09T05:37:21.571Z,410
2016-07-09T05:38:21.548Z,405
2016-07-09T05:39:21.537Z,395
2016-07-09T05:40:21.529Z,400
2016-07-09T05:41:21.502Z,415
2016-07-09T05:42:21.482Z,425
2016-07-09T05:43:21.467Z,425
2016-07-09T05:44:21.449Z,425
2016-07-09T05:45:22.034Z,420
2016-07-09T05:46:21.428Z,440
2016-07-09T05:47:21.399Z,455
2016-07-09T05:48:21.383Z,455
2016-07-09T05:49:21.369Z,450
2016-07-09T05:50:21.352Z,450
2016-07-09T05:51:21.336Z,465
2016-07-09T05:52:21.318Z,475
2016-07-09T05:53:21.303Z,480
2016-07-09T05:54:21.284Z,495
2016-07-09T05:55:21.267Z,510
2016-07-09T05:56:21.252Z,515
2016-07-09T05:57:21.236Z,515
2016-07-09T05:58:21.212Z,520
2016-07-09T05:59:21.200Z,530
2016-07-09T06:00:21.185Z,535
2016-07-09T06:01:21.172Z,535
2016-07-09T06:02:21.153Z,540
2016-07-09T06:03:21.138Z,550
2016-07-09T06:04:21.111Z,550
2016-07-09T06:05:21.100Z,540
2016-07-09T06:06:21.084Z,515
2016-07-09T06:07:21.062Z,515
2016-07-09T06:08:21.049Z,520
2016-07-09T06:09:21.034Z,520
2016-07-09T06:10:21.018Z,510
2016-07-09T06:11:21.003Z,505
2016-07-09T06:12:20.985Z,495
2016-07-09T06:13:20.968Z,460
2016-07-09T06:14:20.962Z,470
2016-07-09T06:15:20.934Z,495
2016-07-09T06:16:20.923Z,505
2016-07-09T06:17:20.908Z,500
2016-07-09T06:18:20.890Z,515
2016-07-09T06:19:20.869Z,535
2016-07-09T06:20:20.857Z,525
2016-07-09T06:21:20.842Z,530
2016-07-09T06:22:21.424Z,520
2016-07-09T06:23:20.813Z,535
2016-07-09T06:24:20.800Z,585
2016-07-09T06:25:20.778Z,630
2016-07-09T06:26:20.760Z,650
2016-07-09T06:27:20.752Z,665
2016-07-09T06:28:20.735Z,675
2016-07-09T06:29:20.710Z,685
2016-07-09T06:30:20.695Z,705
2016-07-09T06:31:20.688Z,730
2016-07-09T06:32:20.662Z,735
2016-07-09T06:33:20.650Z,725
2016-07-09T06:34:20.639Z,745
2016-07-09T06:35:20.621Z,795
2016-07-09T06:36:20.621Z,1065
2016-07-09T06:37:20.591Z,825
2016-07-09T06:38:20.577Z,875
2016-07-09T06:39:20.562Z,915
2016-07-09T06:40:20.548Z,920
2016-07-09T06:41:20.534Z,1350
2016-07-09T06:42:20.512Z,890
2016-07-09T06:43:20.507Z,885
2016-07-09T06:44:20.487Z,895
2016-07-09T06:45:20.473Z,915
2016-07-09T06:46:20.460Z,920
2016-07-09T06:47:20.452Z,930
2016-07-09T06:48:20.427Z,925
2016-07-09T06:49:20.415Z,910
2016-07-09T06:50:20.401Z,900
2016-07-09T06:51:20.387Z,890
2016-07-09T06:52:20.372Z,915
2016-07-09T06:53:20.354Z,900
2016-07-09T06:54:20.346Z,910
2016-07-09T06:55:20.327Z,915
2016-07-09T06:56:20.326Z,940
2016-07-09T06:57:20.307Z,940
2016-07-09T06:58:20.306Z,990
2016-07-09T06:59:20.280Z,985
2016-07-09T07:00:20.265Z,980
2016-07-09T07:01:20.259Z,1005
2016-07-09T07:02:20.231Z,1090
2016-07-09T07:03:20.223Z,1040
2016-07-09T07:04:20.210Z,1040
2016-07-09T07:05:20.192Z,1190
2016-07-09T07:06:20.182Z,980
2016-07-09T07:07:20.165Z,990
2016-07-09T07:08:20.158Z,980
2016-07-09T07:09:20.142Z,1130
2016-07-09T07:10:20.126Z,950
2016-07-09T07:11:20.121Z,990
2016-07-09T07:12:20.108Z,930
2016-07-09T07:13:20.082Z,915
2016-07-09T07:14:20.073Z,895
2016-07-09T07:15:20.062Z,900
2016-07-09T07:16:20.044Z,935
2016-07-09T07:17:20.034Z,965
2016-07-09T07:18:20.020Z,1000
2016-07-09T07:19:20.007Z,1035
2016-07-09T07:20:19.995Z,1025
2016-07-09T07:21:19.976Z,1025
2016-07-09T07:22:19.970Z,1090
2016-07-09T07:23:19.949Z,1025
2016-07-09T07:24:19.933Z,1070
2016-07-09T07:25:19.927Z,1135
2016-07-09T07:26:19.913Z,1175
2016-07-09T07:27:19.902Z,1190
2016-07-09T07:28:19.884Z,1225
2016-07-09T07:29:19.873Z,1225
2016-07-09T07:30:19.858Z,1300
2016-07-09T07:31:19.843Z,1235
2016-07-09T07:32:19.828Z,1220
2016-07-09T07:33:19.822Z,1205
2016-07-09T07:34:19.803Z,1190
2016-07-09T07:35:19.792Z,1180
2016-07-09T07:36:19.779Z,1170
2016-07-09T07:37:19.763Z,1185
2016-07-09T07:38:19.764Z,1195
2016-07-09T07:39:19.740Z,1220
2016-07-09T07:40:19.724Z,1180
2016-07-09T07:41:19.718Z,1200
2016-07-09T07:42:19.707Z,1270
2016-07-09T07:43:19.688Z,1400
2016-07-09T07:44:19.681Z,1370
2016-07-09T07:45:19.661Z,1290
2016-07-09T07:46:19.648Z,2320
2016-07-09T07:47:19.640Z,1250
2016-07-09T07:48:19.631Z,1225
2016-07-09T07:49:19.616Z,1215
2016-07-09T07:50:19.613Z,1345
2016-07-09T07:51:19.593Z,1280
2016-07-09T07:52:19.578Z,1200
2016-07-09T07:53:19.567Z,1335
2016-07-09T07:54:19.556Z,1350
2016-07-09T07:55:19.546Z,1510
2016-07-09T07:56:19.538Z,1270
2016-07-09T07:57:19.522Z,1365
2016-07-09T07:58:19.507Z,1560
2016-07-09T07:59:19.500Z,1330
2016-07-09T08:00:19.487Z,1290
2016-07-09T08:01:19.470Z,1120
2016-07-09T08:02:19.465Z,1155
2016-07-09T08:03:19.453Z,1115
2016-07-09T08:04:19.439Z,1160
2016-07-09T08:05:19.424Z,1335
2016-07-09T08:06:19.411Z,1415
2016-07-09T08:07:19.407Z,2770
2016-07-09T08:08:19.388Z,2795
2016-07-09T08:09:19.387Z,2310
2016-07-09T08:10:19.366Z,1405
2016-07-09T08:11:19.357Z,1110
2016-07-09T08:12:19.347Z,1175
2016-07-09T08:13:19.330Z,1880
2016-07-09T08:14:19.333Z,2625
2016-07-09T08:15:19.327Z,2515
2016-07-09T08:16:19.306Z,2530
2016-07-09T08:17:19.306Z,2460
2016-07-09T08:18:19.282Z,2370
2016-07-09T08:19:19.270Z,2465
2016-07-09T08:20:19.276Z,2160
2016-07-09T08:21:19.255Z,2395
2016-07-09T08:22:19.245Z,2430
2016-07-09T08:23:19.234Z,2545
2016-07-09T08:24:19.232Z,2570
2016-07-09T08:25:19.217Z,2560
2016-07-09T08:26:19.209Z,2410
2016-07-09T08:27:19.204Z,2555
2016-07-09T08:28:19.196Z,2685
2016-07-09T08:29:19.190Z,2810
2016-07-09T08:30:19.178Z,2905
2016-07-09T08:31:19.175Z,2865
2016-07-09T08:32:19.172Z,1945
2016-07-09T08:33:19.162Z,1390
2016-07-09T08:34:19.170Z,2705
2016-07-09T08:35:19.150Z,2940
2016-07-09T08:36:19.143Z,2980
2016-07-09T08:37:19.139Z,2210
2016-07-09T08:38:19.129Z,1980
2016-07-09T08:39:19.124Z,1485
2016-07-09T08:40:19.120Z,1970
2016-07-09T08:41:19.117Z,2240
2016-07-09T08:42:19.113Z,1740
2016-07-09T08:43:19.101Z,2325
2016-07-09T08:44:19.093Z,1720
2016-07-09T08:45:19.089Z,3055
2016-07-09T08:46:19.078Z,3145
2016-07-09T08:47:19.087Z,2090
2016-07-09T08:48:19.069Z,3055
2016-07-09T08:49:19.064Z,1620
2016-07-09T08:50:19.052Z,1870
2016-07-09T08:51:19.056Z,3300
2016-07-09T08:52:19.049Z,2100
2016-07-09T08:53:19.040Z,1455
2016-07-09T08:54:19.030Z,1510
2016-07-09T08:55:19.028Z,1505
2016-07-09T08:56:19.019Z,1480
2016-07-09T08:57:19.015Z,1590
2016-07-09T08:58:19.018Z,1605
2016-07-09T08:59:19.003Z,1740
2016-07-09T09:00:19.001Z,1790
2016-07-09T09:01:18.993Z,1660
2016-07-09T09:02:18.991Z,1785
2016-07-09T09:03:18.980Z,1240
2016-07-09T09:04:18.971Z,1080
2016-07-09T09:05:18.964Z,1145
2016-07-09T09:06:18.961Z,2880
2016-07-09T09:07:18.963Z,2895
2016-07-09T09:08:18.964Z,2870
2016-07-09T09:09:18.932Z,2810
2016-07-09T09:10:18.930Z,2890
2016-07-09T09:11:18.922Z,2925
2016-07-09T09:12:18.911Z,2900
2016-07-09T09:13:18.910Z,2975
2016-07-09T09:14:18.899Z,2970
2016-07-09T09:15:18.892Z,1475
2016-07-09T09:16:18.890Z,1405
2016-07-09T09:17:18.880Z,1645
2016-07-09T09:18:18.875Z,1345
2016-07-09T09:19:18.875Z,1440
2016-07-09T09:20:18.867Z,3045
2016-07-09T09:21:18.869Z,3045
2016-07-09T09:22:18.852Z,1830
2016-07-09T09:23:18.856Z,2200
2016-07-09T09:24:18.842Z,1260
2016-07-09T09:25:18.838Z,1290
2016-07-09T09:26:18.824Z,1200
2016-07-09T09:27:18.827Z,1150
2016-07-09T09:28:18.814Z,1585
2016-07-09T09:29:18.812Z,1475
2016-07-09T09:30:18.805Z,1645
2016-07-09T09:31:18.803Z,1655
2016-07-09T09:32:18.792Z,975
2016-07-09T09:33:18.787Z,820
2016-07-09T09:34:18.771Z,695
2016-07-09T09:35:18.769Z,620
2016-07-09T09:36:18.759Z,595
2016-07-09T09:37:18.753Z,620
2016-07-09T09:38:18.743Z,695
2016-07-09T09:39:18.734Z,805
2016-07-09T09:40:18.722Z,1120
2016-07-09T09:41:18.711Z,2935
2016-07-09T09:42:18.703Z,3085
2016-07-09T09:43:18.703Z,3050
2016-07-09T09:44:18.685Z,3085
2016-07-09T09:45:18.683Z,3090
2016-07-09T09:46:18.678Z,1765
2016-07-09T09:47:18.669Z,1670
2016-07-09T09:48:18.653Z,2465
2016-07-09T09:49:18.648Z,1395
2016-07-09T09:50:18.639Z,2845
2016-07-09T09:51:18.632Z,1240
2016-07-09T09:52:18.627Z,2665
2016-07-09T09:53:18.618Z,3045
2016-07-09T09:54:18.612Z,3100
2016-07-09T09:55:18.620Z,3080
2016-07-09T09:56:19.242Z,1090
2016-07-09T09:57:18.593Z,1000
2016-07-09T09:58:18.586Z,1085
2016-07-09T09:59:18.580Z,1645
2016-07-09T10:00:18.573Z,1430
2016-07-09T10:01:18.570Z,1435
2016-07-09T10:02:18.559Z,1430
2016-07-09T10:03:18.550Z,3275
2016-07-09T10:04:18.550Z,3145
2016-07-09T10:05:18.538Z,3375
2016-07-09T10:06:18.529Z,3420
2016-07-09T10:07:18.529Z,3265
2016-07-09T10:08:18.524Z,3195
2016-07-09T10:09:18.516Z,3205
2016-07-09T10:10:18.515Z,3205
2016-07-09T10:11:18.560Z,3210
2016-07-09T10:12:18.504Z,3210
2016-07-09T10:13:18.495Z,3290
2016-07-09T10:14:18.596Z,2690
2016-07-09T10:15:18.489Z,2060
2016-07-09T10:16:20.464Z,2980
2016-07-09T10:17:18.480Z,3345
2016-07-09T10:18:18.504Z,1415
2016-07-09T10:19:18.475Z,3115
2016-07-09T10:20:18.468Z,3150
2016-07-09T10:21:18.469Z,3310
2016-07-09T10:22:18.468Z,1215
2016-07-09T10:23:18.457Z,1165
2016-07-09T10:24:18.460Z,1160
2016-07-09T10:25:18.467Z,1210
2016-07-09T10:26:18.449Z,1310
2016-07-09T10:27:18.449Z,3075
2016-07-09T10:28:18.447Z,3190
2016-07-09T10:29:18.435Z,2890
2016-07-09T10:30:18.444Z,2255
2016-07-09T10:31:18.425Z,1385
2016-07-09T10:32:18.422Z,1285
2016-07-09T10:33:18.421Z,1360
2016-07-09T10:34:18.408Z,1360
2016-07-09T10:35:18.412Z,2755
2016-07-09T10:36:18.398Z,3335
2016-07-09T10:37:18.399Z,3190
2016-07-09T10:38:18.390Z,1825
2016-07-09T10:39:18.385Z,3270
2016-07-09T10:40:18.407Z,1435
2016-07-09T10:41:18.378Z,1290
2016-07-09T10:42:18.373Z,1220
2016-07-09T10:43:18.366Z,1345
2016-07-09T10:44:18.362Z,3300
2016-07-09T10:45:18.350Z,3100
2016-07-09T10:46:18.367Z,3070
2016-07-09T10:47:18.345Z,3230
2016-07-09T10:48:18.341Z,2985
2016-07-09T10:49:18.336Z,3130
2016-07-09T10:50:18.330Z,3015
2016-07-09T10:51:18.330Z,2785
2016-07-09T10:52:18.326Z,2990
2016-07-09T10:53:18.323Z,1375
2016-07-09T10:54:18.322Z,1330
2016-07-09T10:55:18.312Z,1220
2016-07-09T10:56:18.305Z,1550
2016-07-09T10:57:18.303Z,1095
2016-07-09T10:58:18.303Z,1330
2016-07-09T10:59:18.297Z,900
2016-07-09T11:00:18.291Z,880
2016-07-09T11:01:18.281Z,965
2016-07-09T11:02:18.273Z,1205
2016-07-09T11:03:18.269Z,2535
2016-07-09T11:04:18.271Z,1165
2016-07-09T11:05:18.253Z,1020
2016-07-09T11:06:18.250Z,935
2016-07-09T11:07:18.245Z,955
2016-07-09T11:08:18.236Z,1100
2016-07-09T11:09:18.230Z,1215
2016-07-09T11:10:18.235Z,3330
2016-07-09T11:11:18.224Z,1325
2016-07-09T11:12:18.209Z,1170
2016-07-09T11:13:18.198Z,1310
2016-07-09T11:14:18.184Z,1815
2016-07-09T11:15:18.182Z,1470
2016-07-09T11:16:18.169Z,1280
2016-07-09T11:17:18.167Z,2165
2016-07-09T11:18:18.155Z,3660
2016-07-09T11:19:18.744Z,2175
2016-07-09T11:20:18.140Z,2925
2016-07-09T11:21:18.127Z,1645
2016-07-09T11:22:18.126Z,2880
2016-07-09T11:23:18.117Z,3665
2016-07-09T11:24:18.105Z,3460
2016-07-09T11:25:18.109Z,3285
2016-07-09T11:26:18.098Z,2515
2016-07-09T11:27:18.087Z,3190
2016-07-09T11:28:18.083Z,1620
2016-07-09T11:29:18.082Z,3600
2016-07-09T11:30:18.070Z,3660
2016-07-09T11:31:18.067Z,3385
2016-07-09T11:32:18.058Z,3200
2016-07-09T11:33:18.056Z,3540
2016-07-09T11:34:18.053Z,3720
2016-07-09T11:35:18.051Z,3640
2016-07-09T11:36:18.042Z,3620
2016-07-09T11:37:18.055Z,3655
2016-07-09T11:38:18.037Z,3435
2016-07-09T11:39:18.031Z,3470
2016-07-09T11:40:18.034Z,3430
2016-07-09T11:41:18.631Z,3465
2016-07-09T11:42:18.033Z,2395
2016-07-09T11:43:18.724Z,1235
2016-07-09T11:44:18.025Z,1115
2016-07-09T11:45:18.027Z,1020
2016-07-09T11:46:18.015Z,1010
2016-07-09T11:47:18.020Z,1035
2016-07-09T11:48:18.013Z,1140
2016-07-09T11:49:18.012Z,1250
2016-07-09T11:50:18.007Z,1355
2016-07-09T11:51:17.996Z,1530
2016-07-09T11:52:17.995Z,1630
2016-07-09T11:53:17.993Z,2970
2016-07-09T11:54:18.579Z,3875
2016-07-09T11:55:17.976Z,2580
2016-07-09T11:56:17.981Z,1515
2016-07-09T11:57:17.966Z,1210
2016-07-09T11:58:17.959Z,1045
2016-07-09T11:59:17.961Z,1055
2016-07-09T12:00:17.950Z,970
2016-07-09T12:01:17.941Z,1020
2016-07-09T12:02:17.940Z,1090
2016-07-09T12:03:17.936Z,1155
2016-07-09T12:04:17.920Z,1160
2016-07-09T12:05:17.917Z,1170
2016-07-09T12:06:17.906Z,1195
2016-07-09T12:07:17.904Z,1225
2016-07-09T12:08:17.895Z,1265
2016-07-09T12:09:17.882Z,1355
2016-07-09T12:10:17.887Z,1400
2016-07-09T12:11:17.865Z,1385
2016-07-09T12:12:17.860Z,1365
2016-07-09T12:13:17.856Z,1315
2016-07-09T12:14:17.843Z,1295
2016-07-09T12:15:17.845Z,1275
2016-07-09T12:16:17.832Z,1270
2016-07-09T12:17:17.817Z,1260
2016-07-09T12:18:17.811Z,1250
2016-07-09T12:19:17.800Z,1265
2016-07-09T12:20:17.799Z,1380
2016-07-09T12:21:17.782Z,3605
2016-07-09T12:22:17.778Z,3520
2016-07-09T12:23:17.768Z,2500
2016-07-09T12:24:17.751Z,1420
2016-07-09T12:25:17.748Z,1320
2016-07-09T12:26:17.746Z,1380
2016-07-09T12:27:17.740Z,3975
2016-07-09T12:28:17.722Z,1565
2016-07-09T12:29:17.712Z,1475
2016-07-09T12:30:17.715Z,1410
2016-07-09T12:31:18.007Z,1325
2016-07-09T12:32:17.690Z,1220
2016-07-09T12:33:17.690Z,1115
2016-07-09T12:34:17.684Z,1085
2016-07-09T12:35:17.666Z,1025
2016-07-09T12:36:17.665Z,925
2016-07-09T12:37:17.648Z,880
2016-07-09T12:38:17.638Z,845
2016-07-09T12:39:17.636Z,835
2016-07-09T12:40:17.625Z,870
2016-07-09T12:41:17.612Z,900
2016-07-09T12:42:17.610Z,915
2016-07-09T12:43:17.594Z,940
2016-07-09T12:44:17.584Z,950
2016-07-09T12:45:17.580Z,985
2016-07-09T12:46:17.592Z,1040
2016-07-09T12:47:19.154Z,1090
2016-07-09T12:48:17.556Z,1170
2016-07-09T12:49:17.534Z,1300
2016-07-09T12:50:17.538Z,1530
2016-07-09T12:51:17.516Z,2630
2016-07-09T12:52:17.517Z,2050
2016-07-09T12:53:18.102Z,2470
2016-07-09T12:54:17.526Z,2730
2016-07-09T12:55:17.485Z,1415
2016-07-09T12:56:17.464Z,1405
2016-07-09T12:57:17.463Z,1410
2016-07-09T12:58:17.443Z,1420
2016-07-09T12:59:17.437Z,1470
2016-07-09T13:00:17.433Z,1555
2016-07-09T13:01:17.424Z,1645
2016-07-09T13:02:17.407Z,1775
2016-07-09T13:03:17.407Z,3035
2016-07-09T13:04:17.396Z,2400
2016-07-09T13:05:17.381Z,2350
2016-07-09T13:06:17.400Z,3055
2016-07-09T13:07:17.377Z,1980
2016-07-09T13:08:17.355Z,2120
2016-07-09T13:09:17.355Z,3690
2016-07-09T13:10:17.344Z,3150
2016-07-09T13:11:17.332Z,3595
2016-07-09T13:12:17.333Z,3760
2016-07-09T13:13:17.329Z,3290
2016-07-09T13:14:17.315Z,1885
2016-07-09T13:15:17.309Z,2405
2016-07-09T13:16:17.298Z,3655
2016-07-09T13:17:17.295Z,3600
2016-07-09T13:18:17.295Z,3510
2016-07-09T13:19:17.279Z,3165
2016-07-09T13:20:17.301Z,3315
2016-07-09T13:21:17.278Z,3355
2016-07-09T13:22:17.272Z,3260
2016-07-09T13:23:17.269Z,3540
2016-07-09T13:24:17.265Z,1015
2016-07-09T13:25:17.253Z,970
2016-07-09T13:26:17.255Z,1030
2016-07-09T13:27:17.260Z,1120
2016-07-09T13:28:17.241Z,3035
2016-07-09T13:29:17.239Z,1660
2016-07-09T13:30:17.242Z,1405
2016-07-09T13:31:17.227Z,1140
2016-07-09T13:32:17.224Z,1090
2016-07-09T13:33:17.219Z,1145
2016-07-09T13:34:17.212Z,1225
2016-07-09T13:35:17.204Z,1335
2016-07-09T13:36:17.204Z,1760
2016-07-09T13:37:17.193Z,3440
2016-07-09T13:38:17.187Z,1860
2016-07-09T13:39:17.180Z,3460
2016-07-09T13:40:17.170Z,3500
2016-07-09T13:41:17.166Z,1985
2016-07-09T13:42:17.162Z,3545
2016-07-09T13:43:17.157Z,3100
2016-07-09T13:44:17.740Z,1165
2016-07-09T13:45:17.144Z,2520
2016-07-09T13:46:17.143Z,3345
2016-07-09T13:47:17.129Z,3045
2016-07-09T13:48:17.128Z,3220